createdAt,value
2023-11-07T00:01:43.514Z,6.80
2023-11-07T00:04:11.667Z,6.80
2023-11-07T00:06:41.772Z,6.70
2023-11-07T00:09:09.799Z,6.60
2023-11-07T00:11:40.656Z,6.60
2023-11-07T00:14:08.391Z,6.50
2023-11-07T00:16:37.567Z,6.50
2023-11-07T00:19:06.763Z,6.40
2023-11-07T00:21:34.966Z,6.30
2023-11-07T00:24:03.283Z,6.30
2023-11-07T00:26:31.141Z,6.30
2023-11-07T00:28:59.565Z,6.30
2023-11-07T00:31:27.755Z,6.20
2023-11-07T00:33:56.040Z,6.30
2023-11-07T00:36:23.926Z,6.30
2023-11-07T00:38:51.797Z,6.30
2023-11-07T00:41:20.489Z,6.30
2023-11-07T00:43:48.496Z,6.30
2023-11-07T00:46:16.456Z,6.30
2023-11-07T00:48:44.548Z,6.30
2023-11-07T00:51:13.140Z,6.30
2023-11-07T00:53:40.819Z,6.30
2023-11-07T00:56:09.448Z,6.20
2023-11-07T00:58:37.555Z,6.20
2023-11-07T01:01:06.801Z,6.10
2023-11-07T01:03:34.736Z,6.10
2023-11-07T01:06:03.024Z,6.00
2023-11-07T01:08:31.066Z,6.00
2023-11-07T01:10:58.936Z,5.90
2023-11-07T01:13:28.511Z,5.90
2023-11-07T01:15:56.177Z,5.90
2023-11-07T01:18:24.875Z,6.00
2023-11-07T01:20:52.673Z,6.10
2023-11-07T01:23:20.332Z,6.10
2023-11-07T01:25:48.052Z,6.20
2023-11-07T01:28:16.565Z,6.30
2023-11-07T01:30:44.659Z,6.30
2023-11-07T01:33:12.691Z,6.40
2023-11-07T01:35:40.942Z,6.40
2023-11-07T01:38:09.604Z,6.40
2023-11-07T01:40:37.504Z,6.30
2023-11-07T01:43:16.802Z,6.40
2023-11-07T01:45:44.668Z,6.30
2023-11-07T01:48:24.100Z,6.30
2023-11-07T01:50:52.006Z,6.20
2023-11-07T01:53:21.002Z,6.20
2023-11-07T01:55:49.406Z,6.20
2023-11-07T01:58:20.132Z,6.10
2023-11-07T02:00:50.100Z,6.10
2023-11-07T02:03:18.707Z,6.10
2023-11-07T02:05:46.668Z,6.10
2023-11-07T02:08:14.836Z,6.00
2023-11-07T02:10:43.069Z,6.00
2023-11-07T02:13:11.949Z,5.90
2023-11-07T02:15:40.283Z,5.90
2023-11-07T02:18:08.188Z,5.90
2023-11-07T02:20:39.980Z,5.80
2023-11-07T02:23:10.867Z,5.80
2023-11-07T02:25:40.036Z,5.80
2023-11-07T02:28:08.339Z,5.70
2023-11-07T02:30:36.116Z,5.60
2023-11-07T02:33:07.052Z,5.60
2023-11-07T02:35:35.136Z,5.50
2023-11-07T02:38:04.087Z,5.50
2023-11-07T02:40:31.969Z,5.50
2023-11-07T02:43:01.754Z,5.50
2023-11-07T02:45:30.255Z,5.50
2023-11-07T02:47:58.776Z,5.50
2023-11-07T02:50:26.721Z,5.60
2023-11-07T02:52:54.481Z,5.60
2023-11-07T02:55:22.061Z,5.70
2023-11-07T02:57:49.851Z,5.70
2023-11-07T03:00:18.220Z,5.70
2023-11-07T03:02:45.968Z,5.70
2023-11-07T03:05:13.924Z,5.70
2023-11-07T03:07:41.911Z,5.70
2023-11-07T03:10:10.103Z,5.70
2023-11-07T03:12:37.849Z,5.70
2023-11-07T03:15:06.931Z,5.60
2023-11-07T03:17:34.806Z,5.60
2023-11-07T03:20:02.545Z,5.60
2023-11-07T03:22:30.334Z,5.60
2023-11-07T03:24:58.117Z,5.60
2023-11-07T03:27:26.725Z,5.50
2023-11-07T03:29:55.929Z,5.50
2023-11-07T03:32:24.210Z,5.60
2023-11-07T03:34:51.905Z,5.60
2023-11-07T03:37:19.905Z,5.60
2023-11-07T03:39:47.739Z,5.70
2023-11-07T03:42:16.280Z,5.70
2023-11-07T03:44:44.314Z,5.80
2023-11-07T03:47:12.415Z,5.80
2023-11-07T03:49:40.792Z,5.80
2023-11-07T03:52:08.624Z,5.80
2023-11-07T03:54:36.480Z,5.70
2023-11-07T03:57:04.630Z,5.70
2023-11-07T03:59:32.532Z,5.70
2023-11-07T04:02:01.966Z,5.70
2023-11-07T04:04:29.724Z,5.70
2023-11-07T04:06:59.345Z,5.70
2023-11-07T04:09:27.058Z,5.60
2023-11-07T04:11:55.073Z,5.70
2023-11-07T04:14:23.060Z,5.80
2023-11-07T04:16:50.863Z,5.80
2023-11-07T04:19:18.777Z,5.90
2023-11-07T04:21:46.597Z,5.90
2023-11-07T04:24:16.663Z,6.00
2023-11-07T04:26:44.873Z,6.10
2023-11-07T04:29:12.924Z,6.20
2023-11-07T04:31:42.134Z,6.30
2023-11-07T04:34:11.250Z,6.40
2023-11-07T04:36:43.327Z,6.50
2023-11-07T04:39:13.599Z,6.60
2023-11-07T04:41:42.747Z,6.70
2023-11-07T04:44:12.453Z,6.70
2023-11-07T04:46:40.417Z,6.70
2023-11-07T04:49:08.735Z,6.70
2023-11-07T04:51:37.715Z,6.70
2023-11-07T04:54:05.629Z,6.60
2023-11-07T04:56:33.906Z,6.60
2023-11-07T04:59:01.831Z,6.60
2023-11-07T05:01:29.827Z,6.60
2023-11-07T05:03:59.286Z,6.60
2023-11-07T05:06:27.316Z,6.60
2023-11-07T05:08:55.160Z,6.60
2023-11-07T05:11:23.196Z,6.70
2023-11-07T05:13:50.969Z,6.70
2023-11-07T05:16:18.660Z,6.70
2023-11-07T05:18:46.457Z,6.80
2023-11-07T05:21:14.299Z,6.80
2023-11-07T05:23:41.959Z,6.80
2023-11-07T05:26:11.232Z,6.80
2023-11-07T05:28:38.981Z,6.70
2023-11-07T05:31:07.044Z,6.80
2023-11-07T05:33:35.926Z,6.80
2023-11-07T05:36:04.762Z,6.80
2023-11-07T05:38:32.506Z,6.80
2023-11-07T05:41:00.168Z,6.80
2023-11-07T05:43:27.961Z,6.80
2023-11-07T05:45:56.029Z,6.90
2023-11-07T05:48:25.943Z,6.80
2023-11-07T05:50:54.267Z,6.90
2023-11-07T05:53:22.036Z,6.90
2023-11-07T05:55:50.489Z,7.00
2023-11-07T05:58:18.532Z,7.00
2023-11-07T06:00:46.392Z,7.00
2023-11-07T06:03:15.185Z,7.10
2023-11-07T06:05:45.637Z,7.10
2023-11-07T06:08:14.184Z,7.20
2023-11-07T06:10:42.059Z,7.20
2023-11-07T06:13:09.776Z,7.30
2023-11-07T06:15:39.084Z,7.30
2023-11-07T06:18:07.969Z,7.30
2023-11-07T06:20:35.752Z,7.30
2023-11-07T06:23:03.560Z,7.30
2023-11-07T06:25:31.738Z,7.40
2023-11-07T06:27:59.865Z,7.40
2023-11-07T06:30:31.276Z,7.40
2023-11-07T06:32:59.522Z,7.50
2023-11-07T06:35:27.801Z,7.50
2023-11-07T06:37:55.622Z,7.40
2023-11-07T06:40:24.928Z,7.40
2023-11-07T06:42:54.078Z,7.30
2023-11-07T06:45:22.032Z,7.30
2023-11-07T06:47:49.840Z,7.30
2023-11-07T06:50:17.798Z,7.20
2023-11-07T06:52:51.697Z,7.10
2023-11-07T06:55:24.874Z,7.10
2023-11-07T06:57:57.024Z,7.10
2023-11-07T07:00:28.157Z,7.00
2023-11-07T07:02:57.684Z,7.00
2023-11-07T07:05:27.125Z,6.90
2023-11-07T07:07:55.877Z,7.00
2023-11-07T07:10:24.615Z,7.00
2023-11-07T07:12:52.536Z,7.00
2023-11-07T07:15:21.614Z,7.10
2023-11-07T07:17:49.575Z,7.10
2023-11-07T07:20:17.774Z,7.10
2023-11-07T07:22:45.880Z,7.20
2023-11-07T07:25:21.496Z,7.20
2023-11-07T07:27:49.604Z,7.30
2023-11-07T07:30:27.768Z,7.30
2023-11-07T07:32:56.529Z,7.40
2023-11-07T07:35:24.553Z,7.30
2023-11-07T07:37:55.042Z,7.30
2023-11-07T07:40:27.927Z,7.30
2023-11-07T07:43:00.872Z,7.20
2023-11-07T07:45:32.176Z,7.20
2023-11-07T07:48:03.787Z,7.10
2023-11-07T07:50:32.256Z,7.10
2023-11-07T07:53:03.458Z,7.00
2023-11-07T07:55:35.211Z,7.00
2023-11-07T07:58:07.298Z,7.00
2023-11-07T08:00:38.735Z,7.00
2023-11-07T08:03:11.312Z,7.00
2023-11-07T08:05:41.831Z,7.00
2023-11-07T08:08:11.374Z,7.00
2023-11-07T08:10:40.172Z,7.00
2023-11-07T08:13:09.098Z,7.00
2023-11-07T08:15:37.868Z,7.10
2023-11-07T08:18:09.781Z,7.10
2023-11-07T08:20:40.033Z,7.10
2023-11-07T08:23:08.316Z,7.10
2023-11-07T08:25:36.346Z,7.20
2023-11-07T08:28:10.875Z,7.20
2023-11-07T08:30:39.690Z,7.30
2023-11-07T08:33:09.196Z,7.30
2023-11-07T08:35:38.259Z,7.30
2023-11-07T08:38:06.532Z,7.40
2023-11-07T08:40:36.905Z,7.40
2023-11-07T08:43:06.081Z,7.50
2023-11-07T08:45:35.000Z,7.60
2023-11-07T08:48:04.109Z,7.60
2023-11-07T08:50:33.733Z,7.80
2023-11-07T08:53:07.200Z,7.80
2023-11-07T08:55:35.934Z,7.80
2023-11-07T08:58:07.032Z,7.90
2023-11-07T09:00:36.589Z,7.90
2023-11-07T09:03:06.056Z,8.00
2023-11-07T09:05:34.717Z,8.00
2023-11-07T09:08:06.305Z,8.10
2023-11-07T09:10:35.357Z,8.20
2023-11-07T09:13:05.504Z,8.40
2023-11-07T09:15:33.470Z,8.50
2023-11-07T09:18:01.918Z,8.60
2023-11-07T09:20:30.296Z,8.60
2023-11-07T09:22:58.046Z,8.70
2023-11-07T09:25:25.853Z,8.70
2023-11-07T09:27:53.797Z,8.70
2023-11-07T09:30:22.367Z,8.60
2023-11-07T09:32:51.332Z,8.60
2023-11-07T09:35:20.229Z,8.60
2023-11-07T09:37:51.553Z,8.50
2023-11-07T09:40:24.525Z,8.50
2023-11-07T09:42:56.628Z,8.60
2023-11-07T09:45:26.331Z,8.70
2023-11-07T09:47:57.893Z,8.80
2023-11-07T09:50:26.663Z,9.00
2023-11-07T09:52:56.690Z,9.10
2023-11-07T09:55:32.716Z,9.10
2023-11-07T09:58:15.626Z,9.20
2023-11-07T10:00:47.224Z,9.30
2023-11-07T10:03:17.299Z,9.40
2023-11-07T10:05:50.216Z,9.50
2023-11-07T10:08:28.506Z,9.50
2023-11-07T10:11:14.784Z,9.50
2023-11-07T10:14:04.542Z,9.60
2023-11-07T10:16:39.772Z,9.70
2023-11-07T10:19:29.267Z,9.80
2023-11-07T10:21:59.004Z,9.90
2023-11-07T10:24:44.677Z,10.00
2023-11-07T10:27:14.679Z,10.10
2023-11-07T10:29:59.533Z,10.20
2023-11-07T10:32:47.892Z,10.20
2023-11-07T10:35:19.651Z,10.20
2023-11-07T10:37:51.074Z,10.30
2023-11-07T10:40:23.187Z,10.30
2023-11-07T10:42:54.867Z,10.40
2023-11-07T10:45:27.339Z,10.40
2023-11-07T10:47:57.904Z,10.50
2023-11-07T10:50:27.370Z,10.50
2023-11-07T10:52:58.704Z,10.50
2023-11-07T10:55:29.429Z,10.50
2023-11-07T10:58:03.194Z,10.60
2023-11-07T11:00:35.140Z,10.70
2023-11-07T11:03:11.564Z,10.80
2023-11-07T11:05:45.332Z,10.90
2023-11-07T11:08:20.961Z,11.10
2023-11-07T11:10:49.570Z,11.10
2023-11-07T11:13:17.550Z,11.20
2023-11-07T11:15:47.489Z,11.20
2023-11-07T11:18:21.358Z,11.20
2023-11-07T11:21:07.069Z,11.10
2023-11-07T11:23:58.915Z,10.90
2023-11-07T11:26:51.752Z,10.90
2023-11-07T11:29:28.849Z,10.90
2023-11-07T11:32:22.535Z,11.10
2023-11-07T11:34:52.025Z,11.30
2023-11-07T11:37:21.151Z,11.40
2023-11-07T11:39:53.340Z,11.50
2023-11-07T11:42:22.364Z,11.60
2023-11-07T11:45:40.720Z,11.60
2023-11-07T11:48:19.938Z,11.80
2023-11-07T11:50:50.159Z,11.80
2023-11-07T11:53:34.728Z,11.90
2023-11-07T11:56:05.593Z,12.00
2023-11-07T11:58:36.981Z,11.90
2023-11-07T12:01:05.181Z,11.90
2023-11-07T12:03:44.910Z,11.80
2023-11-07T12:06:15.122Z,11.80
2023-11-07T12:08:44.276Z,11.80
2023-11-07T12:11:13.555Z,11.80
2023-11-07T12:13:43.530Z,11.80
2023-11-07T12:16:21.309Z,11.80
2023-11-07T12:18:53.033Z,11.80
2023-11-07T12:21:26.938Z,11.80
2023-11-07T12:24:01.503Z,11.80
2023-11-07T12:26:42.366Z,11.90
2023-11-07T12:29:12.817Z,11.90
2023-11-07T12:31:41.905Z,11.80
2023-11-07T12:34:12.999Z,11.80
2023-11-07T12:36:43.494Z,11.70
2023-11-07T12:39:14.649Z,11.70
2023-11-07T12:41:45.507Z,11.60
2023-11-07T12:44:17.936Z,11.70
2023-11-07T12:46:47.672Z,11.80
2023-11-07T12:49:20.777Z,11.80
2023-11-07T12:51:51.334Z,11.80
2023-11-07T12:54:29.180Z,11.80
2023-11-07T12:56:59.876Z,11.80
2023-11-07T12:59:30.718Z,11.90
2023-11-07T13:02:02.569Z,11.90
2023-11-07T13:04:31.670Z,12.10
2023-11-07T13:07:03.106Z,12.20
2023-11-07T13:09:33.219Z,12.30
2023-11-07T13:12:11.955Z,12.20
2023-11-07T13:14:40.374Z,12.10
2023-11-07T13:17:09.675Z,12.00
2023-11-07T13:19:42.785Z,12.00
2023-11-07T13:22:12.873Z,11.90
2023-11-07T13:24:40.798Z,12.00
2023-11-07T13:27:09.607Z,12.00
2023-11-07T13:29:37.965Z,11.90
2023-11-07T13:32:07.035Z,11.90
2023-11-07T13:34:35.727Z,11.80
2023-11-07T13:37:06.628Z,11.70
2023-11-07T13:39:36.422Z,11.60
2023-11-07T13:42:06.067Z,11.60
2023-11-07T13:44:33.996Z,11.50
2023-11-07T13:47:02.629Z,11.20
2023-11-07T13:49:30.509Z,10.80
2023-11-07T13:51:58.548Z,10.30
2023-11-07T13:54:26.539Z,10.00
2023-11-07T13:56:54.675Z,9.70
2023-11-07T13:59:25.692Z,9.60
2023-11-07T14:01:55.802Z,9.50
2023-11-07T14:04:23.998Z,9.40
2023-11-07T14:06:52.443Z,9.40
2023-11-07T14:09:21.535Z,9.40
2023-11-07T14:11:50.839Z,9.40
2023-11-07T14:14:22.110Z,9.50
2023-11-07T14:16:52.588Z,9.50
2023-11-07T14:19:23.956Z,9.60
2023-11-07T14:21:54.100Z,9.60
2023-11-07T14:24:25.002Z,9.70
2023-11-07T14:26:56.062Z,9.70
2023-11-07T14:29:39.016Z,9.70
2023-11-07T14:32:18.290Z,9.80
2023-11-07T14:34:51.136Z,9.80
2023-11-07T14:37:22.142Z,9.80
2023-11-07T14:39:53.604Z,9.90
2023-11-07T14:42:28.649Z,10.00
2023-11-07T14:44:59.281Z,10.10
2023-11-07T14:47:29.778Z,10.10
2023-11-07T14:50:01.269Z,10.20
2023-11-07T14:52:36.275Z,10.20
2023-11-07T14:55:09.398Z,10.30
2023-11-07T14:57:44.049Z,10.20
2023-11-07T15:00:27.506Z,10.20
2023-11-07T15:02:59.772Z,10.20
2023-11-07T15:05:33.359Z,10.10
2023-11-07T15:08:06.947Z,10.10
2023-11-07T15:10:36.843Z,10.10
2023-11-07T15:13:07.515Z,10.10
2023-11-07T15:15:36.164Z,10.10
2023-11-07T15:18:05.916Z,10.00
2023-11-07T15:20:34.383Z,9.90
2023-11-07T15:23:03.360Z,9.90
2023-11-07T15:25:34.548Z,9.80
2023-11-07T15:28:03.220Z,9.70
2023-11-07T15:30:36.816Z,9.60
2023-11-07T15:33:05.307Z,9.40
2023-11-07T15:35:38.104Z,9.40
2023-11-07T15:38:07.947Z,9.40
2023-11-07T15:40:37.612Z,9.30
2023-11-07T15:43:06.596Z,9.30
2023-11-07T15:45:35.683Z,9.20
2023-11-07T15:48:11.305Z,9.30
2023-11-07T15:50:40.931Z,9.20
2023-11-07T15:53:09.923Z,9.20
2023-11-07T15:55:40.239Z,9.20
2023-11-07T15:58:08.993Z,9.20
2023-11-07T16:00:37.206Z,9.10
2023-11-07T16:03:06.015Z,9.10
2023-11-07T16:05:36.778Z,9.10
2023-11-07T16:08:08.380Z,9.20
2023-11-07T16:10:37.625Z,9.20
2023-11-07T16:13:06.174Z,9.20
2023-11-07T16:15:34.855Z,9.20
2023-11-07T16:18:03.865Z,9.10
2023-11-07T16:20:32.631Z,9.10
2023-11-07T16:23:01.121Z,9.00
2023-11-07T16:25:28.908Z,8.90
2023-11-07T16:27:56.828Z,8.90
2023-11-07T16:30:25.420Z,8.90
2023-11-07T16:32:53.815Z,8.90
2023-11-07T16:35:21.817Z,8.90
2023-11-07T16:37:52.855Z,8.90
2023-11-07T16:40:22.510Z,8.90
2023-11-07T16:42:53.487Z,8.80
2023-11-07T16:45:21.710Z,8.80
2023-11-07T16:47:52.035Z,8.80
2023-11-07T16:50:21.920Z,8.80
2023-11-07T16:52:50.053Z,8.60
2023-11-07T16:55:18.131Z,8.50
2023-11-07T16:57:46.517Z,8.40
2023-11-07T17:00:16.089Z,8.40
2023-11-07T17:02:44.007Z,8.40
2023-11-07T17:05:12.885Z,8.30
2023-11-07T17:07:40.926Z,8.30
2023-11-07T17:10:09.705Z,8.10
2023-11-07T17:12:37.761Z,8.10
2023-11-07T17:15:09.060Z,8.00
2023-11-07T17:17:37.760Z,8.00
2023-11-07T17:20:07.966Z,7.90
2023-11-07T17:22:37.045Z,7.90
2023-11-07T17:25:06.021Z,7.90
2023-11-07T17:27:34.021Z,7.90
2023-11-07T17:30:02.086Z,7.80
2023-11-07T17:32:30.156Z,7.80
2023-11-07T17:35:05.158Z,7.80
2023-11-07T17:37:34.922Z,7.80
2023-11-07T17:40:04.310Z,7.80
2023-11-07T17:42:32.013Z,7.80
2023-11-07T17:45:01.526Z,7.90
2023-11-07T17:47:31.341Z,7.90
2023-11-07T17:49:59.683Z,8.00
2023-11-07T17:52:27.534Z,8.00
2023-11-07T17:54:55.257Z,8.00
2023-11-07T17:57:23.106Z,7.90
2023-11-07T17:59:53.992Z,7.90
2023-11-07T18:02:24.113Z,7.80
2023-11-07T18:04:51.883Z,7.80
2023-11-07T18:07:20.980Z,7.70
2023-11-07T18:09:51.611Z,7.60
2023-11-07T18:12:21.078Z,7.50
2023-11-07T18:14:49.206Z,7.40
2023-11-07T18:17:17.202Z,7.40
2023-11-07T18:19:45.863Z,7.30
2023-11-07T18:22:14.280Z,7.20
2023-11-07T18:24:42.153Z,7.10
2023-11-07T18:27:09.922Z,7.10
2023-11-07T18:29:38.052Z,7.10
2023-11-07T18:32:08.077Z,7.00
2023-11-07T18:34:36.586Z,7.00
2023-11-07T18:37:06.400Z,7.00
2023-11-07T18:39:36.837Z,6.90
2023-11-07T18:42:05.500Z,6.90
2023-11-07T18:44:36.906Z,6.90
2023-11-07T18:47:05.220Z,6.80
2023-11-07T18:49:33.330Z,6.80
2023-11-07T18:52:02.028Z,6.70
2023-11-07T18:54:30.619Z,6.70
2023-11-07T18:56:59.130Z,6.60
2023-11-07T18:59:36.183Z,6.60
2023-11-07T19:02:07.740Z,6.60
2023-11-07T19:04:37.994Z,6.60
2023-11-07T19:07:08.912Z,6.60
2023-11-07T19:09:37.121Z,6.50
2023-11-07T19:12:05.921Z,6.40
2023-11-07T19:14:33.980Z,6.40
2023-11-07T19:17:01.780Z,6.30
2023-11-07T19:19:30.441Z,6.20
2023-11-07T19:22:08.509Z,6.20
2023-11-07T19:24:36.875Z,6.10
2023-11-07T19:27:05.785Z,6.00
2023-11-07T19:29:33.771Z,6.00
2023-11-07T19:32:03.245Z,6.00
2023-11-07T19:34:31.173Z,5.90
2023-11-07T19:36:58.985Z,5.90
2023-11-07T19:39:29.230Z,5.90
2023-11-07T19:42:02.974Z,5.90
2023-11-07T19:44:31.855Z,5.80
2023-11-07T19:46:59.581Z,5.80
2023-11-07T19:49:28.660Z,5.80
2023-11-07T19:51:59.005Z,5.80
2023-11-07T19:54:27.836Z,5.80
2023-11-07T19:56:56.170Z,5.70
2023-11-07T19:59:24.134Z,5.60
2023-11-07T20:01:51.918Z,5.50
2023-11-07T20:04:20.041Z,5.40
2023-11-07T20:06:48.775Z,5.40
2023-11-07T20:09:17.229Z,5.30
2023-11-07T20:11:45.241Z,5.30
2023-11-07T20:14:13.154Z,5.30
2023-11-07T20:16:40.951Z,5.30
2023-11-07T20:19:09.040Z,5.30
2023-11-07T20:21:37.083Z,5.40
2023-11-07T20:24:05.956Z,5.40
2023-11-07T20:26:33.711Z,5.40
2023-11-07T20:29:01.538Z,5.40
2023-11-07T20:31:29.441Z,5.40
2023-11-07T20:33:57.644Z,5.30
2023-11-07T20:36:26.547Z,5.30
2023-11-07T20:38:54.782Z,5.30
2023-11-07T20:41:22.866Z,5.30
2023-11-07T20:43:55.789Z,5.30
2023-11-07T20:46:33.574Z,5.30
2023-11-07T20:49:05.081Z,5.30
2023-11-07T20:51:36.186Z,5.30
2023-11-07T20:54:04.922Z,5.30
2023-11-07T20:56:34.066Z,5.30
2023-11-07T20:59:02.729Z,5.30
2023-11-07T21:01:30.371Z,5.30
2023-11-07T21:03:59.408Z,5.40
2023-11-07T21:06:27.930Z,5.40
2023-11-07T21:08:55.800Z,5.40
2023-11-07T21:11:23.510Z,5.40
2023-11-07T21:13:52.287Z,5.30
2023-11-07T21:16:20.839Z,5.30
2023-11-07T21:18:50.182Z,5.30
2023-11-07T21:21:18.178Z,5.30
2023-11-07T21:23:46.097Z,5.30
2023-11-07T21:26:14.681Z,5.20
2023-11-07T21:28:42.466Z,5.20
2023-11-07T21:31:10.345Z,5.20
2023-11-07T21:33:40.216Z,5.20
2023-11-07T21:36:08.231Z,5.20
2023-11-07T21:38:36.125Z,5.20
2023-11-07T21:41:04.064Z,5.30
2023-11-07T21:43:31.922Z,5.30
2023-11-07T21:46:01.564Z,5.30
2023-11-07T21:48:29.848Z,5.30
2023-11-07T21:50:57.835Z,5.30
2023-11-07T21:53:25.989Z,5.30
2023-11-07T21:55:54.656Z,5.40
2023-11-07T21:58:22.881Z,5.40
2023-11-07T22:00:50.772Z,5.30
2023-11-07T22:03:18.667Z,5.30
2023-11-07T22:05:46.621Z,5.30
2023-11-07T22:08:14.366Z,5.30
2023-11-07T22:10:42.077Z,5.10
2023-11-07T22:13:09.754Z,5.00
2023-11-07T22:15:37.657Z,5.00
2023-11-07T22:18:06.997Z,4.90
2023-11-07T22:20:35.419Z,4.90
2023-11-07T22:23:03.818Z,4.90
2023-11-07T22:25:32.751Z,4.90
2023-11-07T22:28:00.919Z,4.90
2023-11-07T22:30:28.665Z,5.00
2023-11-07T22:32:56.364Z,5.00
2023-11-07T22:35:24.267Z,5.10
2023-11-07T22:37:51.970Z,5.10
2023-11-07T22:40:22.031Z,5.10
2023-11-07T22:42:49.743Z,5.10
2023-11-07T22:45:18.585Z,5.10
2023-11-07T22:47:46.339Z,5.10
2023-11-07T22:50:14.219Z,5.10
2023-11-07T22:52:45.491Z,5.10
2023-11-07T22:55:14.215Z,5.10
2023-11-07T22:57:42.251Z,5.20
2023-11-07T23:00:11.912Z,5.20
2023-11-07T23:02:40.787Z,5.20
2023-11-07T23:05:08.924Z,5.20
2023-11-07T23:07:36.708Z,5.20
2023-11-07T23:10:04.960Z,5.20
2023-11-07T23:12:33.197Z,5.20
2023-11-07T23:15:00.830Z,5.30
2023-11-07T23:17:28.514Z,5.40
2023-11-07T23:19:56.243Z,5.30
2023-11-07T23:22:23.814Z,5.40
2023-11-07T23:24:51.642Z,5.40
2023-11-07T23:27:19.902Z,5.40
2023-11-07T23:29:47.655Z,5.40
2023-11-07T23:32:15.334Z,5.40
2023-11-07T23:34:43.103Z,5.40
2023-11-07T23:37:11.680Z,5.30
2023-11-07T23:39:39.425Z,5.30
2023-11-07T23:42:07.439Z,5.30
2023-11-07T23:44:35.815Z,5.30
2023-11-07T23:47:04.677Z,5.30
2023-11-07T23:49:32.708Z,5.30
2023-11-07T23:52:01.533Z,5.30
2023-11-07T23:54:29.297Z,5.30
2023-11-07T23:56:57.515Z,5.30
2023-11-07T23:59:26.115Z,5.30
